sensor_id;sensor_type;location;lat;lon;timestamp;temperature;humidity
39601;DHT22;25297;44.758;11.310;2023-05-24T00:00:56;22.30;90.20
39601;DHT22;25297;44.758;11.310;2023-05-24T00:03:22;22.30;90.30
39601;DHT22;25297;44.758;11.310;2023-05-24T00:05:47;22.20;90.50
39601;DHT22;25297;44.758;11.310;2023-05-24T00:08:13;22.20;90.30
39601;DHT22;25297;44.758;11.310;2023-05-24T00:10:41;22.20;90.40
39601;DHT22;25297;44.758;11.310;2023-05-24T00:13:06;22.20;90.40
39601;DHT22;25297;44.758;11.310;2023-05-24T00:15:32;22.10;90.60
39601;DHT22;25297;44.758;11.310;2023-05-24T00:17:58;22.10;90.80
39601;DHT22;25297;44.758;11.310;2023-05-24T00:20:24;22.10;90.80
39601;DHT22;25297;44.758;11.310;2023-05-24T00:22:49;22.10;90.80
39601;DHT22;25297;44.758;11.310;2023-05-24T00:25:16;22.00;90.80
39601;DHT22;25297;44.758;11.310;2023-05-24T00:27:41;22.00;90.80
39601;DHT22;25297;44.758;11.310;2023-05-24T00:30:07;21.90;91.00
39601;DHT22;25297;44.758;11.310;2023-05-24T00:32:33;21.90;91.20
39601;DHT22;25297;44.758;11.310;2023-05-24T00:34:58;21.90;91.10
39601;DHT22;25297;44.758;11.310;2023-05-24T00:37:24;21.90;91.10
39601;DHT22;25297;44.758;11.310;2023-05-24T00:39:50;21.80;91.30
39601;DHT22;25297;44.758;11.310;2023-05-24T00:42:16;21.80;91.50
39601;DHT22;25297;44.758;11.310;2023-05-24T00:44:42;21.80;91.40
39601;DHT22;25297;44.758;11.310;2023-05-24T00:47:08;21.70;91.50
39601;DHT22;25297;44.758;11.310;2023-05-24T00:49:33;21.70;91.60
39601;DHT22;25297;44.758;11.310;2023-05-24T00:51:59;21.70;91.50
39601;DHT22;25297;44.758;11.310;2023-05-24T00:54:25;21.70;91.70
39601;DHT22;25297;44.758;11.310;2023-05-24T00:56:52;21.70;91.80
39601;DHT22;25297;44.758;11.310;2023-05-24T00:59:18;21.70;91.80
39601;DHT22;25297;44.758;11.310;2023-05-24T01:01:44;21.60;91.90
39601;DHT22;25297;44.758;11.310;2023-05-24T01:04:12;21.60;91.90
39601;DHT22;25297;44.758;11.310;2023-05-24T01:09:19;21.60;92.00
39601;DHT22;25297;44.758;11.310;2023-05-24T01:12:08;21.50;92.00
39601;DHT22;25297;44.758;11.310;2023-05-24T01:17:22;21.50;92.20
39601;DHT22;25297;44.758;11.310;2023-05-24T01:20:04;21.50;92.30
39601;DHT22;25297;44.758;11.310;2023-05-24T01:28:38;21.30;92.50
39601;DHT22;25297;44.758;11.310;2023-05-24T01:31:04;21.30;92.50
39601;DHT22;25297;44.758;11.310;2023-05-24T01:33:31;21.30;92.50
39601;DHT22;25297;44.758;11.310;2023-05-24T01:35:57;21.30;92.70
39601;DHT22;25297;44.758;11.310;2023-05-24T01:38:22;21.20;92.60
39601;DHT22;25297;44.758;11.310;2023-05-24T01:40:54;21.20;92.60
39601;DHT22;25297;44.758;11.310;2023-05-24T01:51:17;21.20;93.10
39601;DHT22;25297;44.758;11.310;2023-05-24T01:53:45;21.10;93.20
39601;DHT22;25297;44.758;11.310;2023-05-24T01:56:14;21.10;93.30
39601;DHT22;25297;44.758;11.310;2023-05-24T01:58:43;21.10;93.50
39601;DHT22;25297;44.758;11.310;2023-05-24T02:01:11;21.10;93.50
39601;DHT22;25297;44.758;11.310;2023-05-24T02:03:37;21.10;93.70
39601;DHT22;25297;44.758;11.310;2023-05-24T02:06:04;21.10;93.70
39601;DHT22;25297;44.758;11.310;2023-05-24T02:08:30;21.10;93.70
39601;DHT22;25297;44.758;11.310;2023-05-24T02:10:56;21.10;93.70
39601;DHT22;25297;44.758;11.310;2023-05-24T02:13:21;21.10;93.70
39601;DHT22;25297;44.758;11.310;2023-05-24T02:15:47;21.10;93.90
39601;DHT22;25297;44.758;11.310;2023-05-24T02:18:13;21.10;94.00
39601;DHT22;25297;44.758;11.310;2023-05-24T02:20:39;21.20;94.10
39601;DHT22;25297;44.758;11.310;2023-05-24T02:23:05;21.20;94.20
39601;DHT22;25297;44.758;11.310;2023-05-24T02:25:31;21.20;94.10
39601;DHT22;25297;44.758;11.310;2023-05-24T02:27:58;21.20;94.10
39601;DHT22;25297;44.758;11.310;2023-05-24T02:30:24;21.20;94.00
39601;DHT22;25297;44.758;11.310;2023-05-24T02:32:50;21.20;94.00
39601;DHT22;25297;44.758;11.310;2023-05-24T02:35:15;21.20;94.00
39601;DHT22;25297;44.758;11.310;2023-05-24T02:37:41;21.20;94.10
39601;DHT22;25297;44.758;11.310;2023-05-24T02:40:07;21.20;94.10
39601;DHT22;25297;44.758;11.310;2023-05-24T02:42:33;21.20;94.10
39601;DHT22;25297;44.758;11.310;2023-05-24T02:44:59;21.20;94.40
39601;DHT22;25297;44.758;11.310;2023-05-24T02:47:25;21.20;94.20
39601;DHT22;25297;44.758;11.310;2023-05-24T02:49:54;21.20;94.30
39601;DHT22;25297;44.758;11.310;2023-05-24T02:52:20;21.20;94.30
39601;DHT22;25297;44.758;11.310;2023-05-24T02:54:48;21.20;94.30
39601;DHT22;25297;44.758;11.310;2023-05-24T02:57:14;21.20;94.30
39601;DHT22;25297;44.758;11.310;2023-05-24T02:59:40;21.10;94.30
39601;DHT22;25297;44.758;11.310;2023-05-24T03:02:06;21.10;94.50
39601;DHT22;25297;44.758;11.310;2023-05-24T03:04:32;21.10;94.60
39601;DHT22;25297;44.758;11.310;2023-05-24T03:06:57;21.10;94.60
39601;DHT22;25297;44.758;11.310;2023-05-24T03:09:23;21.10;94.60
39601;DHT22;25297;44.758;11.310;2023-05-24T03:11:49;21.10;94.70
39601;DHT22;25297;44.758;11.310;2023-05-24T03:14:16;21.10;94.60
39601;DHT22;25297;44.758;11.310;2023-05-24T03:16:41;21.10;94.60
39601;DHT22;25297;44.758;11.310;2023-05-24T03:19:07;21.10;94.60
39601;DHT22;25297;44.758;11.310;2023-05-24T03:21:33;21.10;94.60
39601;DHT22;25297;44.758;11.310;2023-05-24T03:23:58;21.10;94.60
39601;DHT22;25297;44.758;11.310;2023-05-24T03:26:24;21.10;94.60
39601;DHT22;25297;44.758;11.310;2023-05-24T03:28:51;21.10;94.60
39601;DHT22;25297;44.758;11.310;2023-05-24T03:31:19;21.00;94.50
39601;DHT22;25297;44.758;11.310;2023-05-24T03:33:45;21.00;94.50
39601;DHT22;25297;44.758;11.310;2023-05-24T03:36:11;21.00;94.60
39601;DHT22;25297;44.758;11.310;2023-05-24T03:38:36;21.00;94.60
39601;DHT22;25297;44.758;11.310;2023-05-24T03:41:02;21.00;94.60
39601;DHT22;25297;44.758;11.310;2023-05-24T03:43:28;21.00;94.60
39601;DHT22;25297;44.758;11.310;2023-05-24T03:45:53;21.00;94.60
39601;DHT22;25297;44.758;11.310;2023-05-24T03:48:19;20.90;94.50
39601;DHT22;25297;44.758;11.310;2023-05-24T03:50:45;20.90;94.60
39601;DHT22;25297;44.758;11.310;2023-05-24T03:53:11;20.90;94.60
39601;DHT22;25297;44.758;11.310;2023-05-24T03:55:37;20.90;94.60
39601;DHT22;25297;44.758;11.310;2023-05-24T03:58:03;20.90;94.70
39601;DHT22;25297;44.758;11.310;2023-05-24T04:00:28;20.90;94.80
39601;DHT22;25297;44.758;11.310;2023-05-24T04:02:54;20.90;94.80
39601;DHT22;25297;44.758;11.310;2023-05-24T04:05:21;20.90;94.90
39601;DHT22;25297;44.758;11.310;2023-05-24T04:07:51;20.90;94.90
39601;DHT22;25297;44.758;11.310;2023-05-24T04:10:17;20.90;94.80
39601;DHT22;25297;44.758;11.310;2023-05-24T04:12:44;20.90;94.90
39601;DHT22;25297;44.758;11.310;2023-05-24T04:15:10;20.90;95.00
39601;DHT22;25297;44.758;11.310;2023-05-24T04:17:40;20.90;95.10
39601;DHT22;25297;44.758;11.310;2023-05-24T04:20:07;20.90;95.20
39601;DHT22;25297;44.758;11.310;2023-05-24T04:22:34;20.90;95.20
39601;DHT22;25297;44.758;11.310;2023-05-24T04:25:01;20.90;95.30
39601;DHT22;25297;44.758;11.310;2023-05-24T04:27:27;20.90;95.40
39601;DHT22;25297;44.758;11.310;2023-05-24T04:29:54;20.90;95.50
39601;DHT22;25297;44.758;11.310;2023-05-24T04:32:20;20.90;95.60
39601;DHT22;25297;44.758;11.310;2023-05-24T04:34:46;20.90;95.60
39601;DHT22;25297;44.758;11.310;2023-05-24T04:37:12;20.90;95.60
39601;DHT22;25297;44.758;11.310;2023-05-24T04:39:42;20.90;95.70
39601;DHT22;25297;44.758;11.310;2023-05-24T04:42:08;20.90;95.80
39601;DHT22;25297;44.758;11.310;2023-05-24T04:44:34;20.80;95.80
39601;DHT22;25297;44.758;11.310;2023-05-24T04:47:00;20.90;95.80
39601;DHT22;25297;44.758;11.310;2023-05-24T04:49:28;20.90;95.90
39601;DHT22;25297;44.758;11.310;2023-05-24T04:51:54;20.90;96.00
39601;DHT22;25297;44.758;11.310;2023-05-24T04:54:20;20.90;96.00
39601;DHT22;25297;44.758;11.310;2023-05-24T04:56:45;20.90;96.10
39601;DHT22;25297;44.758;11.310;2023-05-24T04:59:11;20.90;96.10
39601;DHT22;25297;44.758;11.310;2023-05-24T05:01:38;20.90;96.20
39601;DHT22;25297;44.758;11.310;2023-05-24T05:04:03;20.90;96.30
39601;DHT22;25297;44.758;11.310;2023-05-24T05:06:29;20.90;96.20
39601;DHT22;25297;44.758;11.310;2023-05-24T05:08:56;20.90;96.20
39601;DHT22;25297;44.758;11.310;2023-05-24T05:11:22;20.90;96.20
39601;DHT22;25297;44.758;11.310;2023-05-24T05:13:47;20.90;96.20
39601;DHT22;25297;44.758;11.310;2023-05-24T05:16:14;20.90;96.20
39601;DHT22;25297;44.758;11.310;2023-05-24T05:18:39;21.00;96.50
39601;DHT22;25297;44.758;11.310;2023-05-24T05:21:05;21.00;96.60
39601;DHT22;25297;44.758;11.310;2023-05-24T05:23:31;21.00;96.70
39601;DHT22;25297;44.758;11.310;2023-05-24T05:25:57;21.00;96.60
39601;DHT22;25297;44.758;11.310;2023-05-24T05:28:22;21.10;96.60
39601;DHT22;25297;44.758;11.310;2023-05-24T05:30:48;21.10;96.60
39601;DHT22;25297;44.758;11.310;2023-05-24T05:33:14;21.10;96.50
39601;DHT22;25297;44.758;11.310;2023-05-24T05:35:39;21.10;96.50
39601;DHT22;25297;44.758;11.310;2023-05-24T05:38:05;21.20;96.50
39601;DHT22;25297;44.758;11.310;2023-05-24T05:40:31;21.20;96.60
39601;DHT22;25297;44.758;11.310;2023-05-24T05:42:56;21.20;96.70
39601;DHT22;25297;44.758;11.310;2023-05-24T05:45:23;21.20;96.50
39601;DHT22;25297;44.758;11.310;2023-05-24T05:47:48;21.30;96.30
39601;DHT22;25297;44.758;11.310;2023-05-24T05:50:14;21.20;96.30
39601;DHT22;25297;44.758;11.310;2023-05-24T05:52:40;21.30;96.50
39601;DHT22;25297;44.758;11.310;2023-05-24T05:55:06;21.30;96.50
39601;DHT22;25297;44.758;11.310;2023-05-24T05:57:32;21.30;96.50
39601;DHT22;25297;44.758;11.310;2023-05-24T05:59:57;21.40;96.40
39601;DHT22;25297;44.758;11.310;2023-05-24T06:02:23;21.40;96.40
39601;DHT22;25297;44.758;11.310;2023-05-24T06:04:49;21.40;96.40
39601;DHT22;25297;44.758;11.310;2023-05-24T06:07:15;21.50;96.40
39601;DHT22;25297;44.758;11.310;2023-05-24T06:09:40;21.50;96.50
39601;DHT22;25297;44.758;11.310;2023-05-24T06:12:06;21.50;96.40
39601;DHT22;25297;44.758;11.310;2023-05-24T06:14:32;21.60;96.30
39601;DHT22;25297;44.758;11.310;2023-05-24T06:16:58;21.60;96.30
39601;DHT22;25297;44.758;11.310;2023-05-24T06:19:24;21.60;96.60
39601;DHT22;25297;44.758;11.310;2023-05-24T06:21:51;21.70;96.30
39601;DHT22;25297;44.758;11.310;2023-05-24T06:24:17;21.70;96.10
39601;DHT22;25297;44.758;11.310;2023-05-24T06:26:48;21.80;96.20
39601;DHT22;25297;44.758;11.310;2023-05-24T06:29:14;21.80;95.70
39601;DHT22;25297;44.758;11.310;2023-05-24T06:31:40;21.80;95.30
39601;DHT22;25297;44.758;11.310;2023-05-24T06:34:06;21.90;95.20
39601;DHT22;25297;44.758;11.310;2023-05-24T06:36:32;21.90;94.90
39601;DHT22;25297;44.758;11.310;2023-05-24T06:39:00;21.90;94.90
39601;DHT22;25297;44.758;11.310;2023-05-24T06:41:26;21.90;94.90
39601;DHT22;25297;44.758;11.310;2023-05-24T06:43:52;22.00;95.10
39601;DHT22;25297;44.758;11.310;2023-05-24T06:46:18;22.00;94.60
39601;DHT22;25297;44.758;11.310;2023-05-24T06:48:43;22.10;94.60
39601;DHT22;25297;44.758;11.310;2023-05-24T06:51:09;22.10;94.70
39601;DHT22;25297;44.758;11.310;2023-05-24T06:53:35;22.10;94.90
39601;DHT22;25297;44.758;11.310;2023-05-24T06:56:00;22.20;95.10
39601;DHT22;25297;44.758;11.310;2023-05-24T06:58:26;22.20;95.00
39601;DHT22;25297;44.758;11.310;2023-05-24T07:00:51;22.20;94.80
39601;DHT22;25297;44.758;11.310;2023-05-24T07:03:17;22.30;94.90
39601;DHT22;25297;44.758;11.310;2023-05-24T07:05:43;22.30;94.40
39601;DHT22;25297;44.758;11.310;2023-05-24T07:08:08;22.30;94.40
39601;DHT22;25297;44.758;11.310;2023-05-24T07:10:34;22.30;94.60
39601;DHT22;25297;44.758;11.310;2023-05-24T07:13:00;22.40;94.90
39601;DHT22;25297;44.758;11.310;2023-05-24T07:15:26;22.40;94.80
39601;DHT22;25297;44.758;11.310;2023-05-24T07:17:51;22.40;94.70
39601;DHT22;25297;44.758;11.310;2023-05-24T07:20:17;22.50;94.60
39601;DHT22;25297;44.758;11.310;2023-05-24T07:22:43;22.50;94.50
39601;DHT22;25297;44.758;11.310;2023-05-24T07:25:09;22.50;94.60
39601;DHT22;25297;44.758;11.310;2023-05-24T07:27:34;22.60;94.90
39601;DHT22;25297;44.758;11.310;2023-05-24T07:30:01;22.60;94.50
39601;DHT22;25297;44.758;11.310;2023-05-24T07:32:27;22.60;94.40
39601;DHT22;25297;44.758;11.310;2023-05-24T07:34:52;22.60;94.40
39601;DHT22;25297;44.758;11.310;2023-05-24T07:37:19;22.60;94.40
39601;DHT22;25297;44.758;11.310;2023-05-24T07:39:44;22.70;94.40
39601;DHT22;25297;44.758;11.310;2023-05-24T07:42:10;22.70;94.60
39601;DHT22;25297;44.758;11.310;2023-05-24T07:44:36;22.70;94.80
39601;DHT22;25297;44.758;11.310;2023-05-24T07:47:01;22.80;95.50
39601;DHT22;25297;44.758;11.310;2023-05-24T07:49:27;22.80;95.40
39601;DHT22;25297;44.758;11.310;2023-05-24T07:51:53;22.80;95.20
39601;DHT22;25297;44.758;11.310;2023-05-24T07:54:22;22.90;95.30
39601;DHT22;25297;44.758;11.310;2023-05-24T07:56:48;22.90;95.30
39601;DHT22;25297;44.758;11.310;2023-05-24T07:59:13;23.00;95.30
39601;DHT22;25297;44.758;11.310;2023-05-24T08:01:39;23.00;95.20
39601;DHT22;25297;44.758;11.310;2023-05-24T08:04:05;23.00;95.50
39601;DHT22;25297;44.758;11.310;2023-05-24T08:06:34;23.00;95.50
39601;DHT22;25297;44.758;11.310;2023-05-24T08:09:03;23.10;95.50
39601;DHT22;25297;44.758;11.310;2023-05-24T08:11:29;23.10;95.50
39601;DHT22;25297;44.758;11.310;2023-05-24T08:13:55;23.10;95.50
39601;DHT22;25297;44.758;11.310;2023-05-24T08:16:21;23.20;95.50
39601;DHT22;25297;44.758;11.310;2023-05-24T08:18:47;23.20;95.80
39601;DHT22;25297;44.758;11.310;2023-05-24T08:21:12;23.30;95.50
39601;DHT22;25297;44.758;11.310;2023-05-24T08:23:38;23.30;95.80
39601;DHT22;25297;44.758;11.310;2023-05-24T08:26:04;23.30;96.00
39601;DHT22;25297;44.758;11.310;2023-05-24T08:28:29;23.40;96.50
39601;DHT22;25297;44.758;11.310;2023-05-24T08:30:55;23.40;96.60
39601;DHT22;25297;44.758;11.310;2023-05-24T08:33:21;23.50;96.60
39601;DHT22;25297;44.758;11.310;2023-05-24T08:35:48;23.50;96.70
39601;DHT22;25297;44.758;11.310;2023-05-24T08:38:14;23.50;97.00
39601;DHT22;25297;44.758;11.310;2023-05-24T08:40:40;23.60;96.80
39601;DHT22;25297;44.758;11.310;2023-05-24T08:43:06;23.60;96.40
39601;DHT22;25297;44.758;11.310;2023-05-24T08:45:37;23.60;96.30
39601;DHT22;25297;44.758;11.310;2023-05-24T08:48:04;23.70;96.00
39601;DHT22;25297;44.758;11.310;2023-05-24T08:50:31;23.70;95.90
39601;DHT22;25297;44.758;11.310;2023-05-24T08:52:58;23.70;96.20
39601;DHT22;25297;44.758;11.310;2023-05-24T08:55:26;23.70;95.80
39601;DHT22;25297;44.758;11.310;2023-05-24T08:57:54;23.70;96.10
39601;DHT22;25297;44.758;11.310;2023-05-24T09:00:21;23.80;96.50
39601;DHT22;25297;44.758;11.310;2023-05-24T09:02:48;23.80;96.40
39601;DHT22;25297;44.758;11.310;2023-05-24T09:05:14;23.80;96.50
39601;DHT22;25297;44.758;11.310;2023-05-24T09:07:42;23.90;96.80
39601;DHT22;25297;44.758;11.310;2023-05-24T09:10:09;23.90;96.60
39601;DHT22;25297;44.758;11.310;2023-05-24T09:12:39;24.00;96.80
39601;DHT22;25297;44.758;11.310;2023-05-24T09:15:06;24.10;96.70
39601;DHT22;25297;44.758;11.310;2023-05-24T09:17:34;24.10;96.60
39601;DHT22;25297;44.758;11.310;2023-05-24T09:20:01;24.10;97.00
39601;DHT22;25297;44.758;11.310;2023-05-24T09:22:28;24.10;97.50
39601;DHT22;25297;44.758;11.310;2023-05-24T09:25:01;24.20;97.20
39601;DHT22;25297;44.758;11.310;2023-05-24T09:27:27;24.20;97.30
39601;DHT22;25297;44.758;11.310;2023-05-24T09:29:54;24.30;97.60
39601;DHT22;25297;44.758;11.310;2023-05-24T09:32:21;24.30;97.20
39601;DHT22;25297;44.758;11.310;2023-05-24T09:34:51;24.30;96.90
39601;DHT22;25297;44.758;11.310;2023-05-24T09:37:21;24.40;96.60
39601;DHT22;25297;44.758;11.310;2023-05-24T09:39:49;24.40;96.70
39601;DHT22;25297;44.758;11.310;2023-05-24T09:42:19;24.40;96.50
39601;DHT22;25297;44.758;11.310;2023-05-24T09:45:01;24.50;96.70
39601;DHT22;25297;44.758;11.310;2023-05-24T09:47:30;24.50;96.00
39601;DHT22;25297;44.758;11.310;2023-05-24T09:49:58;24.50;95.90
39601;DHT22;25297;44.758;11.310;2023-05-24T09:52:24;24.60;96.20
39601;DHT22;25297;44.758;11.310;2023-05-24T09:54:50;24.60;95.80
39601;DHT22;25297;44.758;11.310;2023-05-24T09:57:16;24.60;95.80
39601;DHT22;25297;44.758;11.310;2023-05-24T09:59:41;24.60;96.10
39601;DHT22;25297;44.758;11.310;2023-05-24T10:02:11;24.70;96.40
39601;DHT22;25297;44.758;11.310;2023-05-24T10:04:40;24.70;96.20
39601;DHT22;25297;44.758;11.310;2023-05-24T10:07:06;24.80;96.00
39601;DHT22;25297;44.758;11.310;2023-05-24T10:09:33;24.80;95.80
39601;DHT22;25297;44.758;11.310;2023-05-24T10:12:04;24.80;96.00
39601;DHT22;25297;44.758;11.310;2023-05-24T10:14:35;24.80;95.80
39601;DHT22;25297;44.758;11.310;2023-05-24T10:17:07;24.90;95.70
39601;DHT22;25297;44.758;11.310;2023-05-24T10:19:34;24.90;95.90
39601;DHT22;25297;44.758;11.310;2023-05-24T10:22:03;24.90;96.60
39601;DHT22;25297;44.758;11.310;2023-05-24T10:24:46;25.00;96.50
39601;DHT22;25297;44.758;11.310;2023-05-24T10:27:18;25.10;96.70
39601;DHT22;25297;44.758;11.310;2023-05-24T10:32:15;25.10;95.60
39601;DHT22;25297;44.758;11.310;2023-05-24T10:34:41;25.20;94.90
39601;DHT22;25297;44.758;11.310;2023-05-24T10:37:10;25.20;94.40
39601;DHT22;25297;44.758;11.310;2023-05-24T10:39:36;25.20;93.40
39601;DHT22;25297;44.758;11.310;2023-05-24T10:42:03;25.30;93.40
39601;DHT22;25297;44.758;11.310;2023-05-24T10:44:31;25.30;93.70
39601;DHT22;25297;44.758;11.310;2023-05-24T10:47:14;25.30;93.80
39601;DHT22;25297;44.758;11.310;2023-05-24T10:49:52;25.40;93.60
39601;DHT22;25297;44.758;11.310;2023-05-24T10:52:19;25.40;93.60
39601;DHT22;25297;44.758;11.310;2023-05-24T10:55:05;25.40;94.10
39601;DHT22;25297;44.758;11.310;2023-05-24T10:57:33;25.50;93.90
39601;DHT22;25297;44.758;11.310;2023-05-24T11:00:25;25.50;93.20
39601;DHT22;25297;44.758;11.310;2023-05-24T11:03:11;25.50;93.40
39601;DHT22;25297;44.758;11.310;2023-05-24T11:05:48;25.50;93.40
39601;DHT22;25297;44.758;11.310;2023-05-24T11:08:31;25.60;92.40
39601;DHT22;25297;44.758;11.310;2023-05-24T11:11:07;25.70;91.00
39601;DHT22;25297;44.758;11.310;2023-05-24T11:13:55;25.70;90.90
39601;DHT22;25297;44.758;11.310;2023-05-24T11:16:36;25.80;90.10
39601;DHT22;25297;44.758;11.310;2023-05-24T11:19:20;26.10;90.20
39601;DHT22;25297;44.758;11.310;2023-05-24T11:21:48;26.00;90.60
39601;DHT22;25297;44.758;11.310;2023-05-24T11:24:16;26.00;90.10
39601;DHT22;25297;44.758;11.310;2023-05-24T11:26:42;26.00;88.60
39601;DHT22;25297;44.758;11.310;2023-05-24T11:29:08;26.00;85.70
39601;DHT22;25297;44.758;11.310;2023-05-24T11:31:34;26.10;81.80
39601;DHT22;25297;44.758;11.310;2023-05-24T11:34:04;26.10;81.80
39601;DHT22;25297;44.758;11.310;2023-05-24T11:36:31;26.20;80.90
39601;DHT22;25297;44.758;11.310;2023-05-24T11:38:57;26.20;76.80
39601;DHT22;25297;44.758;11.310;2023-05-24T11:41:23;26.20;82.80
39601;DHT22;25297;44.758;11.310;2023-05-24T11:43:49;26.30;83.60
39601;DHT22;25297;44.758;11.310;2023-05-24T11:46:15;26.40;82.10
39601;DHT22;25297;44.758;11.310;2023-05-24T11:48:43;26.40;82.80
39601;DHT22;25297;44.758;11.310;2023-05-24T11:51:08;26.50;81.70
39601;DHT22;25297;44.758;11.310;2023-05-24T11:53:34;26.50;80.90
39601;DHT22;25297;44.758;11.310;2023-05-24T11:55:59;26.50;82.20
39601;DHT22;25297;44.758;11.310;2023-05-24T11:58:38;26.50;82.50
39601;DHT22;25297;44.758;11.310;2023-05-24T12:01:25;26.50;82.90
39601;DHT22;25297;44.758;11.310;2023-05-24T12:03:52;26.50;82.20
39601;DHT22;25297;44.758;11.310;2023-05-24T12:06:19;26.60;81.00
39601;DHT22;25297;44.758;11.310;2023-05-24T12:08:46;26.60;80.00
39601;DHT22;25297;44.758;11.310;2023-05-24T12:11:13;26.60;82.40
39601;DHT22;25297;44.758;11.310;2023-05-24T12:13:39;26.60;81.80
39601;DHT22;25297;44.758;11.310;2023-05-24T12:16:05;26.60;81.60
39601;DHT22;25297;44.758;11.310;2023-05-24T12:18:31;26.60;79.50
39601;DHT22;25297;44.758;11.310;2023-05-24T12:20:57;26.60;80.80
39601;DHT22;25297;44.758;11.310;2023-05-24T12:23:25;26.60;80.90
39601;DHT22;25297;44.758;11.310;2023-05-24T12:25:59;26.60;80.70
39601;DHT22;25297;44.758;11.310;2023-05-24T12:28:25;26.70;79.90
39601;DHT22;25297;44.758;11.310;2023-05-24T12:30:52;26.70;78.60
39601;DHT22;25297;44.758;11.310;2023-05-24T12:33:18;26.70;78.60
39601;DHT22;25297;44.758;11.310;2023-05-24T12:35:46;26.70;80.00
39601;DHT22;25297;44.758;11.310;2023-05-24T12:38:12;26.70;81.40
39601;DHT22;25297;44.758;11.310;2023-05-24T12:40:41;26.70;82.80
39601;DHT22;25297;44.758;11.310;2023-05-24T12:43:08;26.70;80.90
39601;DHT22;25297;44.758;11.310;2023-05-24T12:45:35;26.70;81.90
39601;DHT22;25297;44.758;11.310;2023-05-24T12:48:01;26.70;81.80
39601;DHT22;25297;44.758;11.310;2023-05-24T12:50:29;26.70;81.20
39601;DHT22;25297;44.758;11.310;2023-05-24T12:52:56;26.80;80.70
39601;DHT22;25297;44.758;11.310;2023-05-24T12:55:23;26.80;80.40
39601;DHT22;25297;44.758;11.310;2023-05-24T12:57:55;26.70;80.60
39601;DHT22;25297;44.758;11.310;2023-05-24T13:00:25;26.60;79.50
39601;DHT22;25297;44.758;11.310;2023-05-24T13:02:54;26.80;80.60
39601;DHT22;25297;44.758;11.310;2023-05-24T13:05:23;26.80;78.40
39601;DHT22;25297;44.758;11.310;2023-05-24T13:07:50;26.80;76.80
39601;DHT22;25297;44.758;11.310;2023-05-24T13:10:18;26.80;76.20
39601;DHT22;25297;44.758;11.310;2023-05-24T13:12:47;26.80;77.70
39601;DHT22;25297;44.758;11.310;2023-05-24T13:15:13;26.80;78.70
39601;DHT22;25297;44.758;11.310;2023-05-24T13:17:40;26.90;77.30
39601;DHT22;25297;44.758;11.310;2023-05-24T13:20:07;26.90;78.30
39601;DHT22;25297;44.758;11.310;2023-05-24T13:22:36;26.90;77.90
39601;DHT22;25297;44.758;11.310;2023-05-24T13:25:06;26.90;78.30
39601;DHT22;25297;44.758;11.310;2023-05-24T13:27:32;27.00;78.40
39601;DHT22;25297;44.758;11.310;2023-05-24T13:29:58;26.90;76.40
39601;DHT22;25297;44.758;11.310;2023-05-24T13:32:24;27.00;77.30
39601;DHT22;25297;44.758;11.310;2023-05-24T13:34:49;27.00;78.60
39601;DHT22;25297;44.758;11.310;2023-05-24T13:37:16;27.10;77.10
39601;DHT22;25297;44.758;11.310;2023-05-24T13:39:42;27.10;77.80
39601;DHT22;25297;44.758;11.310;2023-05-24T13:42:08;27.10;77.60
39601;DHT22;25297;44.758;11.310;2023-05-24T13:44:35;27.10;77.50
39601;DHT22;25297;44.758;11.310;2023-05-24T13:47:00;27.10;77.20
39601;DHT22;25297;44.758;11.310;2023-05-24T13:49:27;27.10;77.50
39601;DHT22;25297;44.758;11.310;2023-05-24T13:51:53;27.10;78.60
39601;DHT22;25297;44.758;11.310;2023-05-24T13:54:18;27.10;77.70
39601;DHT22;25297;44.758;11.310;2023-05-24T13:56:45;27.10;78.10
39601;DHT22;25297;44.758;11.310;2023-05-24T13:59:13;27.10;78.50
39601;DHT22;25297;44.758;11.310;2023-05-24T14:01:39;27.10;77.70
39601;DHT22;25297;44.758;11.310;2023-05-24T14:04:05;27.20;78.70
39601;DHT22;25297;44.758;11.310;2023-05-24T14:06:32;27.20;81.10
39601;DHT22;25297;44.758;11.310;2023-05-24T14:08:59;27.20;81.70
39601;DHT22;25297;44.758;11.310;2023-05-24T14:11:25;27.10;82.80
39601;DHT22;25297;44.758;11.310;2023-05-24T14:13:52;27.10;82.60
39601;DHT22;25297;44.758;11.310;2023-05-24T14:16:18;27.10;82.70
39601;DHT22;25297;44.758;11.310;2023-05-24T14:18:43;27.00;83.20
39601;DHT22;25297;44.758;11.310;2023-05-24T14:21:10;27.00;83.60
39601;DHT22;25297;44.758;11.310;2023-05-24T14:23:36;27.00;84.10
39601;DHT22;25297;44.758;11.310;2023-05-24T14:26:01;27.00;84.80
39601;DHT22;25297;44.758;11.310;2023-05-24T14:28:27;26.90;85.10
39601;DHT22;25297;44.758;11.310;2023-05-24T14:30:53;26.80;85.20
39601;DHT22;25297;44.758;11.310;2023-05-24T14:33:18;26.80;85.60
39601;DHT22;25297;44.758;11.310;2023-05-24T14:35:44;26.70;85.40
39601;DHT22;25297;44.758;11.310;2023-05-24T14:38:10;26.70;85.20
39601;DHT22;25297;44.758;11.310;2023-05-24T14:40:37;26.60;84.60
39601;DHT22;25297;44.758;11.310;2023-05-24T14:43:04;26.60;85.10
39601;DHT22;25297;44.758;11.310;2023-05-24T14:45:30;26.50;85.50
39601;DHT22;25297;44.758;11.310;2023-05-24T14:47:56;26.50;86.50
39601;DHT22;25297;44.758;11.310;2023-05-24T14:50:22;26.50;87.30
39601;DHT22;25297;44.758;11.310;2023-05-24T14:52:48;26.40;87.90
39601;DHT22;25297;44.758;11.310;2023-05-24T14:55:14;26.30;83.30
39601;DHT22;25297;44.758;11.310;2023-05-24T14:57:40;26.30;78.30
39601;DHT22;25297;44.758;11.310;2023-05-24T15:00:07;26.20;76.70
39601;DHT22;25297;44.758;11.310;2023-05-24T15:02:32;26.10;76.40
39601;DHT22;25297;44.758;11.310;2023-05-24T15:04:59;26.10;78.60
39601;DHT22;25297;44.758;11.310;2023-05-24T15:07:25;26.00;76.50
39601;DHT22;25297;44.758;11.310;2023-05-24T15:09:51;26.00;76.50
39601;DHT22;25297;44.758;11.310;2023-05-24T15:12:16;25.90;77.10
39601;DHT22;25297;44.758;11.310;2023-05-24T15:14:42;25.80;76.30
39601;DHT22;25297;44.758;11.310;2023-05-24T15:17:09;25.80;76.80
39601;DHT22;25297;44.758;11.310;2023-05-24T15:19:34;25.70;77.70
39601;DHT22;25297;44.758;11.310;2023-05-24T15:22:00;25.70;77.80
39601;DHT22;25297;44.758;11.310;2023-05-24T15:24:26;25.70;79.00
39601;DHT22;25297;44.758;11.310;2023-05-24T15:26:51;25.60;79.40
39601;DHT22;25297;44.758;11.310;2023-05-24T15:29:18;25.60;80.20
39601;DHT22;25297;44.758;11.310;2023-05-24T15:31:43;25.60;78.90
39601;DHT22;25297;44.758;11.310;2023-05-24T15:34:09;25.60;77.40
39601;DHT22;25297;44.758;11.310;2023-05-24T15:36:35;25.60;76.80